sensor_id;sensor_type;location;lat;lon;timestamp;temperature;humidity
8541;DHT22;4308;51.294;6.590;2022-08-04T00:00:23;24.20;91.70
8541;DHT22;4308;51.294;6.590;2022-08-04T00:11:09;24.20;91.90
8541;DHT22;4308;51.294;6.590;2022-08-04T00:13:42;24.10;91.70
8541;DHT22;4308;51.294;6.590;2022-08-04T00:16:32;24.10;91.70
8541;DHT22;4308;51.294;6.590;2022-08-04T00:21:55;24.10;91.80
8541;DHT22;4308;51.294;6.590;2022-08-04T00:24:23;24.10;91.70
8541;DHT22;4308;51.294;6.590;2022-08-04T00:26:53;24.10;91.70
8541;DHT22;4308;51.294;6.590;2022-08-04T00:29:21;24.00;91.70
8541;DHT22;4308;51.294;6.590;2022-08-04T00:31:49;24.00;91.60
8541;DHT22;4308;51.294;6.590;2022-08-04T00:34:27;24.00;91.70
8541;DHT22;4308;51.294;6.590;2022-08-04T00:36:56;24.00;91.60
8541;DHT22;4308;51.294;6.590;2022-08-04T00:39:24;24.00;91.60
8541;DHT22;4308;51.294;6.590;2022-08-04T00:44:45;24.00;91.50
8541;DHT22;4308;51.294;6.590;2022-08-04T01:00:42;24.10;91.30
8541;DHT22;4308;51.294;6.590;2022-08-04T01:06:35;24.00;91.30
8541;DHT22;4308;51.294;6.590;2022-08-04T01:27:08;23.90;91.50
8541;DHT22;4308;51.294;6.590;2022-08-04T01:29:43;23.90;91.60
8541;DHT22;4308;51.294;6.590;2022-08-04T01:32:25;23.80;91.60
8541;DHT22;4308;51.294;6.590;2022-08-04T01:35:21;23.80;91.90
8541;DHT22;4308;51.294;6.590;2022-08-04T01:40:51;23.80;91.70
8541;DHT22;4308;51.294;6.590;2022-08-04T01:43:19;23.70;91.60
8541;DHT22;4308;51.294;6.590;2022-08-04T01:45:57;23.70;91.60
8541;DHT22;4308;51.294;6.590;2022-08-04T01:48:25;23.70;91.70
8541;DHT22;4308;51.294;6.590;2022-08-04T01:50:57;23.70;91.70
8541;DHT22;4308;51.294;6.590;2022-08-04T01:53:30;23.70;91.70
8541;DHT22;4308;51.294;6.590;2022-08-04T01:56:00;23.70;91.70
8541;DHT22;4308;51.294;6.590;2022-08-04T01:58:31;23.70;91.80
8541;DHT22;4308;51.294;6.590;2022-08-04T02:01:07;23.70;91.80
8541;DHT22;4308;51.294;6.590;2022-08-04T02:03:39;23.70;91.90
8541;DHT22;4308;51.294;6.590;2022-08-04T02:06:56;23.70;91.90
8541;DHT22;4308;51.294;6.590;2022-08-04T02:09:37;23.60;91.90
8541;DHT22;4308;51.294;6.590;2022-08-04T02:15:16;23.60;92.00
8541;DHT22;4308;51.294;6.590;2022-08-04T02:18:15;23.60;92.00
8541;DHT22;4308;51.294;6.590;2022-08-04T02:20:48;23.50;92.10
8541;DHT22;4308;51.294;6.590;2022-08-04T02:23:28;23.50;93.00
8541;DHT22;4308;51.294;6.590;2022-08-04T19:26:59;26.30;90.30
8541;DHT22;4308;51.294;6.590;2022-08-04T19:29:26;26.40;90.70
8541;DHT22;4308;51.294;6.590;2022-08-04T19:32:04;26.30;90.80
8541;DHT22;4308;51.294;6.590;2022-08-04T19:34:45;26.20;91.00
8541;DHT22;4308;51.294;6.590;2022-08-04T19:37:16;26.20;91.20
8541;DHT22;4308;51.294;6.590;2022-08-04T19:40:07;26.10;91.30
8541;DHT22;4308;51.294;6.590;2022-08-04T19:42:37;26.00;91.30
8541;DHT22;4308;51.294;6.590;2022-08-04T19:45:08;26.00;91.50
8541;DHT22;4308;51.294;6.590;2022-08-04T19:47:42;25.90;91.70
8541;DHT22;4308;51.294;6.590;2022-08-04T19:50:31;25.80;91.70
8541;DHT22;4308;51.294;6.590;2022-08-04T19:52:59;25.80;91.90
8541;DHT22;4308;51.294;6.590;2022-08-04T19:55:30;25.70;92.00
8541;DHT22;4308;51.294;6.590;2022-08-04T19:58:06;25.70;92.10
8541;DHT22;4308;51.294;6.590;2022-08-04T20:00:36;25.60;92.20
8541;DHT22;4308;51.294;6.590;2022-08-04T20:03:05;25.60;92.40
8541;DHT22;4308;51.294;6.590;2022-08-04T20:05:42;25.50;92.40
8541;DHT22;4308;51.294;6.590;2022-08-04T20:08:30;25.50;92.90
8541;DHT22;4308;51.294;6.590;2022-08-04T20:10:57;25.40;92.60
8541;DHT22;4308;51.294;6.590;2022-08-04T20:13:26;25.40;92.70
8541;DHT22;4308;51.294;6.590;2022-08-04T20:16:05;25.40;92.80
8541;DHT22;4308;51.294;6.590;2022-08-04T20:18:52;25.30;92.90
8541;DHT22;4308;51.294;6.590;2022-08-04T20:21:26;25.30;93.00
8541;DHT22;4308;51.294;6.590;2022-08-04T20:24:14;25.30;93.10
8541;DHT22;4308;51.294;6.590;2022-08-04T20:27:01;25.30;93.20
8541;DHT22;4308;51.294;6.590;2022-08-04T20:29:37;25.30;93.30
8541;DHT22;4308;51.294;6.590;2022-08-04T20:32:09;25.20;93.40
8541;DHT22;4308;51.294;6.590;2022-08-04T20:34:37;25.20;93.50
8541;DHT22;4308;51.294;6.590;2022-08-04T20:37:07;25.20;93.50
8541;DHT22;4308;51.294;6.590;2022-08-04T20:39:37;25.20;93.60
8541;DHT22;4308;51.294;6.590;2022-08-04T20:42:05;25.10;93.70
8541;DHT22;4308;51.294;6.590;2022-08-04T20:44:32;25.10;93.60
8541;DHT22;4308;51.294;6.590;2022-08-04T20:47:00;25.00;93.10
8541;DHT22;4308;51.294;6.590;2022-08-04T20:49:27;24.90;92.40
8541;DHT22;4308;51.294;6.590;2022-08-04T20:52:04;24.90;92.10
8541;DHT22;4308;51.294;6.590;2022-08-04T20:54:42;24.80;91.80
8541;DHT22;4308;51.294;6.590;2022-08-04T20:57:14;24.70;91.50
8541;DHT22;4308;51.294;6.590;2022-08-04T20:59:43;24.60;91.30
8541;DHT22;4308;51.294;6.590;2022-08-04T21:04:54;24.50;90.60
8541;DHT22;4308;51.294;6.590;2022-08-04T21:07:23;24.50;90.60
